Time,TemperatureF,DewpointF,PressureIn,WindDirection,WindDirectionDegrees,WindSpeedMPH,WindSpeedGustMPH,Humidity,HourlyPrecipIn,Conditions,Clouds,dailyrainin,SolarRadiationWatts/m^2,SoftwareType,DateUTC
2013-04-12 00:01:00,39.6,17.9,30.13,ESE,106,4.0,5.0,41,0.00,,OVC070,0.08,0.00,VWS V14.01,2013-04-12 04:01:00,
2013-04-12 00:11:00,39.6,18.4,30.13,East,79,3.0,6.0,42,0.00,,OVC070,0.00,0.00,VWS V14.01,2013-04-12 04:11:00,
2013-04-12 00:21:00,39.5,17.2,30.13,ENE,72,4.0,5.0,40,0.00,,OVC070,0.00,0.00,VWS V14.01,2013-04-12 04:21:00,
2013-04-12 00:31:00,39.5,17.2,30.15,East,84,3.0,7.0,40,0.00,,OVC070,0.00,0.00,VWS V14.01,2013-04-12 04:31:00,
2013-04-12 00:41:00,39.5,16.6,30.15,ESE,111,3.0,6.0,39,0.00,,OVC070,0.00,0.00,VWS V14.01,2013-04-12 04:41:00,
2013-04-12 00:51:00,39.2,16.9,30.13,NE,55,5.0,10.0,40,0.00,,OVC070,0.00,0.00,VWS V14.01,2013-04-12 04:51:00,
2013-04-12 01:01:00,39.2,17.5,30.13,ENE,72,3.0,10.0,41,0.00,,OVC070,0.00,0.00,VWS V14.01,2013-04-12 05:01:00,
2013-04-12 01:11:00,39.2,16.9,30.13,ENE,63,6.0,11.0,40,0.00,,OVC060,0.00,0.00,VWS V14.01,2013-04-12 05:11:00,
2013-04-12 01:21:00,39.1,16.8,30.15,ENE,60,3.0,10.0,40,0.00,,OVC060,0.00,0.00,VWS V14.01,2013-04-12 05:21:00,
2013-04-12 01:31:00,39.1,17.4,30.15,NE,42,6.0,10.0,41,0.00,,OVC060,0.00,0.00,VWS V14.01,2013-04-12 05:31:00,
2013-04-12 01:41:00,38.9,17.2,30.15,NE,54,6.0,10.0,41,0.00,,OVC060,0.00,0.00,VWS V14.01,2013-04-12 05:41:00,
2013-04-12 01:51:00,38.8,17.7,30.14,ENE,69,3.0,11.0,42,0.00,,OVC060,0.00,0.00,VWS V14.01,2013-04-12 05:51:00,
2013-04-12 02:01:00,38.5,18.0,30.13,ENE,71,5.0,11.0,43,0.00,,OVC060,0.00,0.00,VWS V14.01,2013-04-12 06:01:00,
2013-04-12 02:11:00,38.3,17.8,30.13,NE,55,7.0,13.0,43,0.00,,OVC060,0.00,0.00,VWS V14.01,2013-04-12 06:11:00,
2013-04-12 02:21:00,38.2,17.1,30.13,ENE,63,6.0,13.0,42,0.00,,OVC060,0.00,0.00,VWS V14.01,2013-04-12 06:21:00,
2013-04-12 02:31:00,38.0,17.5,30.14,ESE,105,4.0,12.0,43,0.00,,OVC060,0.00,0.00,VWS V14.01,2013-04-12 06:31:00,
2013-04-12 02:41:00,37.8,18.4,30.14,NE,55,6.0,15.0,45,0.00,,OVC060,0.00,0.00,VWS V14.01,2013-04-12 06:41:00,
2013-04-12 02:51:00,37.8,17.9,30.14,SE,124,3.0,13.0,44,0.00,,OVC060,0.00,0.00,VWS V14.01,2013-04-12 06:51:00,
2013-04-12 03:01:00,37.5,17.0,30.14,ENE,67,4.0,13.0,43,0.00,,OVC060,0.00,0.00,VWS V14.01,2013-04-12 07:01:00,
2013-04-12 03:11:00,37.5,17.6,30.14,ENE,63,12.0,15.0,44,0.00,,OVC060,0.00,0.00,VWS V14.01,2013-04-12 07:11:00,
2013-04-12 03:21:00,37.2,17.3,30.15,ENE,63,7.0,16.0,44,0.00,,OVC060,0.00,0.00,VWS V14.01,2013-04-12 07:21:00,
2013-04-12 03:31:00,37.0,16.6,30.14,NE,54,5.0,12.0,43,0.00,,OVC060,0.00,0.00,VWS V14.01,2013-04-12 07:31:00,
2013-04-12 03:41:00,36.8,17.5,30.14,ENE,68,6.0,15.0,45,0.00,,OVC060,0.00,0.00,VWS V14.01,2013-04-12 07:41:00,
2013-04-12 03:51:00,36.5,16.7,30.15,ENE,61,5.0,11.0,44,0.00,,OVC060,0.00,0.00,VWS V14.01,2013-04-12 07:51:00,
2013-04-12 04:01:00,36.2,16.9,30.16,East,100,4.0,11.0,45,0.00,,OVC060,0.00,0.00,VWS V14.01,2013-04-12 08:01:00,
2013-04-12 04:11:00,35.5,18.7,30.16,East,92,3.0,12.0,50,0.00,,OVC060,0.00,0.00,VWS V14.01,2013-04-12 08:11:00,
2013-04-12 04:21:00,34.7,21.5,30.17,East,98,2.0,12.0,58,0.00,,OVC060,0.00,0.00,VWS V14.01,2013-04-12 08:21:00,
2013-04-12 04:31:00,33.8,23.3,30.17,ESE,108,4.0,10.0,65,0.00,,OVC060,0.00,0.00,VWS V14.01,2013-04-12 08:31:00,
2013-04-12 04:41:00,33.5,23.7,30.17,ENE,60,9.0,12.0,67,0.00,,OVC060,0.00,0.00,VWS V14.01,2013-04-12 08:41:00,
2013-04-12 04:51:00,32.9,23.9,30.17,East,86,5.0,14.0,69,0.01,,OVC060,0.01,0.00,VWS V14.01,2013-04-12 08:51:00,
2013-04-12 05:01:00,32.4,25.0,30.17,NE,52,7.0,11.0,74,0.02,,OVC060,0.02,0.00,VWS V14.01,2013-04-12 09:01:00,
2013-04-12 05:11:00,32.2,25.2,30.17,East,79,8.0,10.0,75,0.03,,OVC060,0.03,0.00,VWS V14.01,2013-04-12 09:11:00,
2013-04-12 05:21:00,31.8,25.1,30.18,NE,48,9.0,9.0,76,0.03,,OVC060,0.03,0.00,VWS V14.01,2013-04-12 09:21:00,
2013-04-12 05:31:00,31.6,25.2,30.17,ENE,68,7.0,11.0,77,0.03,,OVC060,0.03,0.00,VWS V14.01,2013-04-12 09:31:00,
2013-04-12 05:41:00,31.8,25.1,30.17,NE,53,2.0,11.0,76,0.03,,OVC060,0.03,0.00,VWS V14.01,2013-04-12 09:41:00,
2013-04-12 05:51:00,31.8,24.8,30.18,NE,41,7.0,10.0,75,0.03,,OVC060,0.03,0.00,VWS V14.01,2013-04-12 09:51:00,
2013-04-12 06:01:00,31.6,24.9,30.18,NE,51,4.0,11.0,76,0.02,,OVC060,0.03,0.00,VWS V14.01,2013-04-12 10:01:00,
2013-04-12 06:11:00,31.6,24.9,30.18,East,82,3.0,10.0,76,0.01,,OVC060,0.03,0.00,VWS V14.01,2013-04-12 10:11:00,
2013-04-12 06:21:00,31.8,24.5,30.19,East,94,4.0,10.0,74,0.00,,OVC060,0.03,0.00,VWS V14.01,2013-04-12 10:21:00,
2013-04-12 06:31:00,31.6,24.3,30.18,ENE,62,5.0,9.0,74,0.00,,OVC060,0.03,0.00,VWS V14.01,2013-04-12 10:31:00,
2013-04-12 06:41:00,31.8,24.5,30.18,ENE,59,5.0,11.0,74,0.00,,OVC050,0.03,5.00,VWS V14.01,2013-04-12 10:41:00,
2013-04-12 06:51:00,31.6,23.6,30.19,ENE,71,6.0,15.0,72,0.00,,OVC050,0.03,5.00,VWS V14.01,2013-04-12 10:51:00,
2013-04-12 07:11:00,31.5,23.9,30.18,ENE,73,5.0,13.0,73,0.00,,OVC050,0.03,16.00,VWS V14.01,2013-04-12 11:11:00,
2013-04-12 07:20:00,31.3,24.0,30.17,ENE,61,6.0,14.0,74,0.00,,OVC050,0.03,18.00,VWS V14.01,2013-04-12 11:20:00,
2013-04-12 07:31:00,31.2,23.9,30.18,ENE,62,5.0,19.0,74,0.00,,OVC050,0.03,12.00,VWS V14.01,2013-04-12 11:31:00,
2013-04-12 07:41:00,31.0,23.4,30.18,ENE,60,8.0,9.0,73,0.00,,OVC043,0.03,21.00,VWS V14.01,2013-04-12 11:41:00,
2013-04-12 07:51:00,31.0,23.7,30.17,ENE,62,12.0,18.0,74,0.00,,OVC043,0.03,26.00,VWS V14.01,2013-04-12 11:51:00,
2013-04-12 08:01:00,31.0,23.4,30.17,ENE,67,7.0,16.0,73,0.00,,OVC043,0.03,33.00,VWS V14.01,2013-04-12 12:01:00,
2013-04-12 08:11:00,31.2,22.9,30.17,ENE,67,7.0,19.0,71,0.00,,OVC043,0.03,25.00,VWS V14.01,2013-04-12 12:11:00,
2013-04-12 08:21:00,31.0,22.4,30.17,ENE,74,9.0,13.0,70,0.00,,OVC043,0.03,32.00,VWS V14.01,2013-04-12 12:21:00,
2013-04-12 08:31:00,31.0,22.4,30.17,East,79,6.0,11.0,70,0.00,,OVC043,0.03,37.00,VWS V14.01,2013-04-12 12:31:00,
2013-04-12 08:41:00,31.2,22.2,30.17,ENE,61,9.0,12.0,69,0.00,,OVC043,0.03,35.00,VWS V14.01,2013-04-12 12:41:00,
2013-04-12 08:51:00,31.2,22.2,30.15,ENE,75,4.0,14.0,69,0.00,,OVC043,0.03,49.00,VWS V14.01,2013-04-12 12:51:00,
2013-04-12 09:01:00,31.2,22.9,30.16,ENE,58,6.0,16.0,71,0.00,,OVC043,0.03,39.00,VWS V14.01,2013-04-12 13:01:00,
2013-04-12 09:11:00,31.0,22.4,30.16,ESE,120,5.0,11.0,70,0.00,,OVC043,0.03,33.00,VWS V14.01,2013-04-12 13:11:00,
2013-04-12 09:21:00,31.3,23.3,30.15,SSE,155,3.0,12.0,72,0.00,,OVC043,0.03,49.00,VWS V14.01,2013-04-12 13:21:00,
2013-04-12 09:31:00,31.2,22.2,30.14,ENE,58,10.0,13.0,69,0.00,,OVC043,0.03,51.00,VWS V14.01,2013-04-12 13:31:00,
2013-04-12 09:41:00,31.3,22.3,30.14,ENE,70,5.0,12.0,69,0.00,,OVC046,0.03,63.00,VWS V14.01,2013-04-12 13:41:00,
2013-04-12 09:51:00,31.3,22.3,30.15,ENE,72,1.0,11.0,69,0.00,,OVC046,0.03,58.00,VWS V14.01,2013-04-12 13:51:00,
2013-04-12 10:01:00,31.5,22.5,30.14,NNE,33,3.0,11.0,69,0.00,,OVC046,0.03,77.00,VWS V14.01,2013-04-12 14:01:00,
2013-04-12 10:11:00,31.6,22.6,30.14,ENE,69,1.0,7.0,69,0.00,,OVC039,0.03,84.00,VWS V14.01,2013-04-12 14:11:00,
2013-04-12 10:31:00,31.9,22.9,30.11,NE,42,5.0,14.0,69,0.00,,OVC039,0.03,100.00,VWS V14.01,2013-04-12 14:31:00,
2013-04-12 10:41:00,31.9,22.5,30.11,ENE,57,9.0,11.0,68,0.00,,OVC037,0.03,95.00,VWS V14.01,2013-04-12 14:41:00,
2013-04-12 10:51:00,32.1,22.8,30.10,NE,51,7.0,12.0,68,0.00,,OVC037,0.03,91.00,VWS V14.01,2013-04-12 14:51:00,
2013-04-12 11:11:00,32.2,23.2,30.09,ENE,58,3.0,13.0,69,0.00,,OVC037,0.03,63.00,VWS V14.01,2013-04-12 15:11:00,
2013-04-12 11:21:00,32.2,22.5,30.10,ENE,58,4.0,12.0,67,0.00,,OVC037,0.03,37.00,VWS V14.01,2013-04-12 15:21:00,
2013-04-12 11:31:00,32.2,23.2,30.08,NE,49,3.0,11.0,69,0.00,,OVC037,0.03,63.00,VWS V14.01,2013-04-12 15:31:00,
2013-04-12 11:41:00,31.9,24.6,30.08,NE,51,4.0,10.0,74,0.00,,OVC037,0.03,56.00,VWS V14.01,2013-04-12 15:41:00,
2013-04-12 11:51:00,31.5,24.8,30.08,ESE,123,3.0,6.0,76,0.00,,OVC037,0.03,53.00,VWS V14.01,2013-04-12 15:51:00,
2013-04-12 12:01:00,31.5,26.4,30.08,North,1,0.0,7.0,81,0.00,,OVC037,0.03,72.00,VWS V14.01,2013-04-12 16:01:00,
2013-04-12 12:11:00,31.3,26.8,30.08,ENE,73,1.0,6.0,83,0.00,,OVC043,0.03,60.00,VWS V14.01,2013-04-12 16:11:00,
2013-04-12 12:21:00,31.3,27.0,30.07,East,80,6.0,6.0,84,0.00,,OVC043,0.03,74.00,VWS V14.01,2013-04-12 16:21:00,
2013-04-12 12:31:00,31.2,27.2,30.08,NE,55,4.0,11.0,85,0.00,,OVC043,0.03,54.00,VWS V14.01,2013-04-12 16:31:00,
2013-04-12 12:41:00,31.2,27.5,30.08,NE,53,6.0,10.0,86,0.00,,OVC049,0.03,49.00,VWS V14.01,2013-04-12 16:41:00,
2013-04-12 12:51:00,31.2,28.1,30.05,ENE,58,4.0,9.0,88,0.00,,OVC049,0.03,54.00,VWS V14.01,2013-04-12 16:51:00,
2013-04-12 13:01:00,31.0,28.1,30.05,NE,46,8.0,10.0,89,0.00,,OVC049,0.03,49.00,VWS V14.01,2013-04-12 17:01:00,
2013-04-12 13:11:00,30.7,27.9,30.05,ENE,63,5.0,12.0,89,0.00,,OVC049,0.03,51.00,VWS V14.01,2013-04-12 17:11:00,
2013-04-12 13:21:00,30.7,28.1,30.04,NE,51,4.0,10.0,90,0.00,,OVC049,0.03,54.00,VWS V14.01,2013-04-12 17:21:00,
2013-04-12 13:31:00,30.9,28.3,30.05,NE,53,4.0,6.0,90,0.00,,OVC049,0.03,54.00,VWS V14.01,2013-04-12 17:31:00,
2013-04-12 13:41:00,30.9,28.3,30.05,East,94,3.0,9.0,90,0.00,,BKN024,0.03,65.00,VWS V14.01,2013-04-12 17:41:00,
2013-04-12 13:51:00,31.2,28.9,30.02,ESE,117,5.0,10.0,91,0.00,,BKN024,0.03,67.00,VWS V14.01,2013-04-12 17:51:00,
2013-04-12 14:11:00,31.5,29.5,30.02,NE,46,2.0,11.0,92,0.00,,OVC019,0.03,79.00,VWS V14.01,2013-04-12 18:11:00,
2013-04-12 14:21:00,31.8,30.0,30.02,NE,56,2.0,9.0,93,0.00,,OVC019,0.03,53.00,VWS V14.01,2013-04-12 18:21:00,
2013-04-12 15:31:00,32.4,31.4,30.00,ENE,75,6.0,7.0,96,0.00,,OVC008,0.03,56.00,VWS V14.01,2013-04-12 19:31:00,
2013-04-12 15:41:00,32.4,31.4,30.00,ENE,76,4.0,9.0,96,0.00,,OVC008,0.03,47.00,VWS V14.01,2013-04-12 19:41:00,
2013-04-12 15:51:00,32.4,31.4,29.99,East,96,4.0,8.0,96,0.00,,OVC008,0.03,26.00,VWS V14.01,2013-04-12 19:51:00,
2013-04-12 16:01:00,32.4,31.4,29.99,East,95,6.0,8.0,96,0.00,,OVC008,0.03,26.00,VWS V14.01,2013-04-12 20:01:00,
2013-04-12 16:11:00,32.4,31.4,29.99,East,79,2.0,10.0,96,0.01,,OVC005,0.04,30.00,VWS V14.01,2013-04-12 20:11:00,
2013-04-12 16:21:00,32.4,31.6,29.98,ESE,115,2.0,7.0,97,0.01,,OVC005,0.04,21.00,VWS V14.01,2013-04-12 20:21:00,
2013-04-12 16:31:00,32.5,31.7,29.96,ENE,78,2.0,7.0,97,0.01,,OVC005,0.04,32.00,VWS V14.01,2013-04-12 20:31:00,
2013-04-12 16:41:00,32.5,31.7,29.96,ENE,58,3.0,10.0,97,0.01,,OVC006,0.04,25.00,VWS V14.01,2013-04-12 20:41:00,
2013-04-12 16:51:00,32.5,31.7,29.97,East,84,3.0,11.0,97,0.01,,OVC006,0.04,21.00,VWS V14.01,2013-04-12 20:51:00,
2013-04-12 17:01:00,32.5,31.7,29.96,ENE,61,7.0,11.0,97,0.01,,OVC006,0.04,28.00,VWS V14.01,2013-04-12 21:01:00,
2013-04-12 17:11:00,32.5,31.7,29.96,ENE,58,5.0,10.0,97,0.01,,OVC006,0.04,16.00,VWS V14.01,2013-04-12 21:11:00,
2013-04-12 17:21:00,32.5,31.7,29.96,ESE,109,4.0,9.0,97,0.00,,OVC006,0.04,28.00,VWS V14.01,2013-04-12 21:21:00,
2013-04-12 17:31:00,32.5,31.7,29.95,ENE,73,6.0,9.0,97,0.00,,OVC006,0.04,21.00,VWS V14.01,2013-04-12 21:31:00,
2013-04-12 17:41:00,32.5,31.5,29.95,East,82,5.0,11.0,96,0.00,,OVC015,0.04,12.00,VWS V14.01,2013-04-12 21:41:00,
2013-04-12 17:51:00,32.4,31.4,29.96,East,81,2.0,6.0,96,0.00,,OVC015,0.04,9.00,VWS V14.01,2013-04-12 21:51:00,
2013-04-12 18:01:00,32.4,31.4,29.95,NE,53,4.0,9.0,96,0.00,,OVC015,0.04,9.00,VWS V14.01,2013-04-12 22:01:00,
2013-04-12 18:11:00,32.4,31.4,29.95,NE,36,6.0,10.0,96,0.00,,OVC016,0.04,12.00,VWS V14.01,2013-04-12 22:11:00,
2013-04-12 18:21:00,32.4,31.4,29.95,ENE,64,7.0,9.0,96,0.00,,OVC016,0.04,9.00,VWS V14.01,2013-04-12 22:21:00,
2013-04-12 18:31:00,32.4,31.4,29.94,ENE,58,6.0,10.0,96,0.00,,OVC016,0.04,0.00,VWS V14.01,2013-04-12 22:31:00,
2013-04-12 18:41:00,32.2,31.2,29.94,ENE,58,5.0,7.0,96,0.00,,OVC006,0.04,0.00,VWS V14.01,2013-04-12 22:41:00,
2013-04-12 18:51:00,32.2,31.2,29.93,ENE,68,4.0,9.0,96,0.00,,OVC006,0.04,0.00,VWS V14.01,2013-04-12 22:51:00,
2013-04-12 19:01:00,32.4,31.6,29.92,ENE,62,6.0,8.0,97,0.00,,OVC006,0.04,0.00,VWS V14.01,2013-04-12 23:01:00,
2013-04-12 19:11:00,32.4,31.6,29.92,NE,37,5.0,11.0,97,0.00,,OVC006,0.04,0.00,VWS V14.01,2013-04-12 23:11:00,
2013-04-12 19:21:00,32.4,31.6,29.91,NE,55,5.0,7.0,97,0.00,,OVC006,0.04,0.00,VWS V14.01,2013-04-12 23:21:00,
2013-04-12 19:31:00,32.2,31.5,29.91,NE,43,6.0,10.0,97,0.00,,OVC006,0.04,0.00,VWS V14.01,2013-04-12 23:31:00,
2013-04-12 19:41:00,32.2,31.5,29.91,NE,49,5.0,10.0,97,0.00,,OVC008,0.04,0.00,VWS V14.01,2013-04-12 23:41:00,
2013-04-12 19:51:00,32.2,31.5,29.91,NE,38,7.0,12.0,97,0.00,,OVC008,0.04,0.00,VWS V14.01,2013-04-12 23:51:00,
2013-04-12 20:01:00,32.2,31.5,29.91,NE,43,6.0,12.0,97,0.00,,OVC008,0.04,0.00,VWS V14.01,2013-04-13 00:01:00,
2013-04-12 20:11:00,32.2,31.5,29.91,NE,45,7.0,13.0,97,0.00,,OVC008,0.04,0.00,VWS V14.01,2013-04-13 00:11:00,
2013-04-12 20:21:00,32.2,31.5,29.91,NE,41,8.0,14.0,97,0.00,,OVC008,0.04,0.00,VWS V14.01,2013-04-13 00:21:00,
2013-04-12 20:31:00,32.2,31.5,29.91,East,85,6.0,15.0,97,0.00,,OVC008,0.04,0.00,VWS V14.01,2013-04-13 00:31:00,
2013-04-12 20:41:00,32.1,31.4,29.91,ENE,74,4.0,12.0,97,0.00,,OVC008,0.04,0.00,VWS V14.01,2013-04-13 00:41:00,
2013-04-12 20:51:00,32.1,31.4,29.90,NE,42,10.0,13.0,97,0.00,,OVC008,0.04,0.00,VWS V14.01,2013-04-13 00:51:00,
2013-04-12 21:01:00,32.1,31.4,29.90,ENE,62,4.0,12.0,97,0.00,,OVC008,0.04,0.00,VWS V14.01,2013-04-13 01:01:00,
2013-04-12 21:11:00,32.2,31.5,29.90,East,84,5.0,11.0,97,0.00,,OVC005,0.04,0.00,VWS V14.01,2013-04-13 01:11:00,
2013-04-12 21:31:00,32.2,31.5,29.90,ENE,65,10.0,11.0,97,0.00,,OVC005,0.04,0.00,VWS V14.01,2013-04-13 01:31:00,
2013-04-12 21:41:00,32.2,31.5,29.90,NE,49,4.0,13.0,97,0.00,,OVC005,0.04,0.00,VWS V14.01,2013-04-13 01:41:00,
2013-04-12 21:51:00,32.4,31.6,29.88,NE,44,9.0,14.0,97,0.00,,OVC005,0.04,0.00,VWS V14.01,2013-04-13 01:51:00,
2013-04-12 22:01:00,32.4,31.6,29.88,NE,37,7.0,16.0,97,0.00,,OVC005,0.04,0.00,VWS V14.01,2013-04-13 02:01:00,
2013-04-12 22:31:00,32.7,31.7,29.87,East,79,10.0,12.0,96,0.00,,OVC006,0.04,0.00,VWS V14.01,2013-04-13 02:31:00,
2013-04-12 23:01:00,32.8,31.5,29.86,East,79,6.0,16.0,95,0.00,,OVC006,0.04,0.00,VWS V14.01,2013-04-13 03:01:00,
2013-04-12 23:31:00,33.1,31.3,29.85,East,86,5.0,12.0,93,0.00,,OVC006,0.04,0.00,VWS V14.01,2013-04-13 03:31:00,
2013-04-12 23:41:00,33.1,31.3,29.85,NE,47,5.0,12.0,93,0.00,,OVC008,0.04,0.00,VWS V14.01,2013-04-13 03:41:00,
2013-04-12 23:51:00,33.1,31.0,29.85,ENE,59,4.0,14.0,92,0.00,,OVC008,0.04,0.00,VWS V14.01,2013-04-13 03:51:00,